sensor_id;sensor_type;location;lat;lon;timestamp;P1;durP1;ratioP1;P2;durP2;ratioP2
19944;SDS011;10134;50.952;6.930;2023-08-06T00:01:19;5.30;;;2.92;;
19944;SDS011;10134;50.952;6.930;2023-08-06T00:03:48;3.20;;;2.28;;
19944;SDS011;10134;50.952;6.930;2023-08-06T00:06:15;5.10;;;2.63;;
19944;SDS011;10134;50.952;6.930;2023-08-06T00:08:43;3.78;;;2.42;;
19944;SDS011;10134;50.952;6.930;2023-08-06T00:11:10;5.07;;;2.30;;
19944;SDS011;10134;50.952;6.930;2023-08-06T00:13:38;2.70;;;2.22;;
19944;SDS011;10134;50.952;6.930;2023-08-06T00:16:12;4.35;;;2.58;;
19944;SDS011;10134;50.952;6.930;2023-08-06T00:18:40;4.82;;;1.90;;
19944;SDS011;10134;50.952;6.930;2023-08-06T00:21:07;2.67;;;1.80;;
19944;SDS011;10134;50.952;6.930;2023-08-06T00:23:35;3.03;;;2.20;;
19944;SDS011;10134;50.952;6.930;2023-08-06T00:26:02;4.72;;;2.13;;
19944;SDS011;10134;50.952;6.930;2023-08-06T00:28:30;2.72;;;1.90;;
19944;SDS011;10134;50.952;6.930;2023-08-06T00:30:57;3.15;;;2.03;;
19944;SDS011;10134;50.952;6.930;2023-08-06T00:33:25;2.20;;;1.75;;
19944;SDS011;10134;50.952;6.930;2023-08-06T00:35:52;2.42;;;1.80;;
19944;SDS011;10134;50.952;6.930;2023-08-06T00:38:19;2.95;;;2.22;;
19944;SDS011;10134;50.952;6.930;2023-08-06T00:40:47;3.08;;;2.05;;
19944;SDS011;10134;50.952;6.930;2023-08-06T00:43:15;5.25;;;2.40;;
19944;SDS011;10134;50.952;6.930;2023-08-06T00:45:43;3.63;;;2.20;;
19944;SDS011;10134;50.952;6.930;2023-08-06T00:48:10;3.50;;;2.60;;
19944;SDS011;10134;50.952;6.930;2023-08-06T00:50:38;2.75;;;1.95;;
19944;SDS011;10134;50.952;6.930;2023-08-06T00:53:05;3.63;;;2.25;;
19944;SDS011;10134;50.952;6.930;2023-08-06T00:55:33;5.88;;;2.35;;
19944;SDS011;10134;50.952;6.930;2023-08-06T00:58:01;3.63;;;2.00;;
19944;SDS011;10134;50.952;6.930;2023-08-06T01:00:28;4.03;;;2.38;;
19944;SDS011;10134;50.952;6.930;2023-08-06T01:02:57;2.20;;;2.00;;
19944;SDS011;10134;50.952;6.930;2023-08-06T01:05:24;3.85;;;2.55;;
19944;SDS011;10134;50.952;6.930;2023-08-06T01:08:03;5.63;;;2.33;;
19944;SDS011;10134;50.952;6.930;2023-08-06T01:10:51;3.42;;;2.38;;
19944;SDS011;10134;50.952;6.930;2023-08-06T01:16:17;4.65;;;2.60;;
19944;SDS011;10134;50.952;6.930;2023-08-06T01:18:46;4.80;;;2.72;;
19944;SDS011;10134;50.952;6.930;2023-08-06T01:21:16;3.88;;;2.45;;
19944;SDS011;10134;50.952;6.930;2023-08-06T01:23:45;3.15;;;2.35;;
19944;SDS011;10134;50.952;6.930;2023-08-06T01:30:06;3.67;;;2.53;;
19944;SDS011;10134;50.952;6.930;2023-08-06T01:32:15;4.40;;;2.35;;
19944;SDS011;10134;50.952;6.930;2023-08-06T01:34:44;7.40;;;3.15;;
19944;SDS011;10134;50.952;6.930;2023-08-06T01:37:12;4.63;;;2.72;;
19944;SDS011;10134;50.952;6.930;2023-08-06T01:39:42;2.55;;;2.13;;
19944;SDS011;10134;50.952;6.930;2023-08-06T01:42:10;4.72;;;2.70;;
19944;SDS011;10134;50.952;6.930;2023-08-06T01:44:39;4.72;;;2.72;;
19944;SDS011;10134;50.952;6.930;2023-08-06T01:47:06;3.33;;;2.55;;
19944;SDS011;10134;50.952;6.930;2023-08-06T01:49:34;5.75;;;2.70;;
19944;SDS011;10134;50.952;6.930;2023-08-06T01:52:01;4.32;;;2.67;;
19944;SDS011;10134;50.952;6.930;2023-08-06T01:54:28;4.95;;;2.85;;
19944;SDS011;10134;50.952;6.930;2023-08-06T01:56:56;4.40;;;2.80;;
19944;SDS011;10134;50.952;6.930;2023-08-06T01:59:25;4.35;;;2.45;;
19944;SDS011;10134;50.952;6.930;2023-08-06T02:01:52;3.72;;;2.42;;
19944;SDS011;10134;50.952;6.930;2023-08-06T02:04:20;2.78;;;2.10;;
19944;SDS011;10134;50.952;6.930;2023-08-06T02:06:47;4.32;;;2.80;;
19944;SDS011;10134;50.952;6.930;2023-08-06T02:09:15;5.88;;;3.50;;
19944;SDS011;10134;50.952;6.930;2023-08-06T02:11:42;3.55;;;2.47;;
19944;SDS011;10134;50.952;6.930;2023-08-06T02:14:09;4.50;;;2.78;;
19944;SDS011;10134;50.952;6.930;2023-08-06T02:16:37;5.50;;;2.58;;
19944;SDS011;10134;50.952;6.930;2023-08-06T02:19:04;5.78;;;2.70;;
19944;SDS011;10134;50.952;6.930;2023-08-06T02:21:31;4.22;;;2.42;;
19944;SDS011;10134;50.952;6.930;2023-08-06T02:23:59;3.75;;;2.80;;
19944;SDS011;10134;50.952;6.930;2023-08-06T02:26:26;3.13;;;2.20;;
19944;SDS011;10134;50.952;6.930;2023-08-06T02:28:55;4.88;;;2.40;;
19944;SDS011;10134;50.952;6.930;2023-08-06T02:31:22;3.63;;;2.25;;
19944;SDS011;10134;50.952;6.930;2023-08-06T02:33:50;3.30;;;1.98;;
19944;SDS011;10134;50.952;6.930;2023-08-06T02:36:17;3.40;;;2.38;;
19944;SDS011;10134;50.952;6.930;2023-08-06T02:38:44;2.55;;;2.30;;
19944;SDS011;10134;50.952;6.930;2023-08-06T02:41:12;3.28;;;2.30;;
19944;SDS011;10134;50.952;6.930;2023-08-06T02:43:39;3.30;;;2.53;;
19944;SDS011;10134;50.952;6.930;2023-08-06T02:46:07;4.65;;;2.50;;
19944;SDS011;10134;50.952;6.930;2023-08-06T02:48:34;3.60;;;2.25;;
19944;SDS011;10134;50.952;6.930;2023-08-06T02:51:02;5.22;;;2.28;;
19944;SDS011;10134;50.952;6.930;2023-08-06T02:53:31;3.85;;;2.25;;
19944;SDS011;10134;50.952;6.930;2023-08-06T02:56:03;2.60;;;1.98;;
19944;SDS011;10134;50.952;6.930;2023-08-06T02:58:41;3.45;;;2.50;;
19944;SDS011;10134;50.952;6.930;2023-08-06T03:01:26;2.83;;;2.10;;
19944;SDS011;10134;50.952;6.930;2023-08-06T03:04:00;3.72;;;2.25;;
19944;SDS011;10134;50.952;6.930;2023-08-06T03:06:34;5.53;;;2.40;;
19944;SDS011;10134;50.952;6.930;2023-08-06T03:09:02;4.68;;;2.25;;
19944;SDS011;10134;50.952;6.930;2023-08-06T03:11:29;2.63;;;1.88;;
19944;SDS011;10134;50.952;6.930;2023-08-06T03:14:02;3.47;;;2.45;;
19944;SDS011;10134;50.952;6.930;2023-08-06T03:16:30;3.85;;;1.83;;
19944;SDS011;10134;50.952;6.930;2023-08-06T03:19:01;3.78;;;2.10;;
19944;SDS011;10134;50.952;6.930;2023-08-06T03:21:29;3.55;;;2.20;;
19944;SDS011;10134;50.952;6.930;2023-08-06T03:23:57;5.40;;;2.25;;
19944;SDS011;10134;50.952;6.930;2023-08-06T03:26:28;5.55;;;2.55;;
19944;SDS011;10134;50.952;6.930;2023-08-06T03:28:56;4.13;;;2.53;;
19944;SDS011;10134;50.952;6.930;2023-08-06T03:31:23;4.70;;;1.92;;
19944;SDS011;10134;50.952;6.930;2023-08-06T03:33:51;5.10;;;2.08;;
19944;SDS011;10134;50.952;6.930;2023-08-06T03:36:24;2.78;;;2.00;;
19944;SDS011;10134;50.952;6.930;2023-08-06T03:38:52;4.80;;;2.25;;
19944;SDS011;10134;50.952;6.930;2023-08-06T03:41:19;2.03;;;1.83;;
19944;SDS011;10134;50.952;6.930;2023-08-06T03:43:46;3.15;;;2.00;;
19944;SDS011;10134;50.952;6.930;2023-08-06T03:46:20;2.30;;;1.95;;
19944;SDS011;10134;50.952;6.930;2023-08-06T03:48:48;3.38;;;2.42;;
19944;SDS011;10134;50.952;6.930;2023-08-06T03:51:15;4.03;;;2.03;;
19944;SDS011;10134;50.952;6.930;2023-08-06T03:53:44;4.20;;;2.20;;
19944;SDS011;10134;50.952;6.930;2023-08-06T03:56:12;3.33;;;2.10;;
19944;SDS011;10134;50.952;6.930;2023-08-06T03:58:39;3.33;;;2.60;;
19944;SDS011;10134;50.952;6.930;2023-08-06T04:01:07;2.28;;;1.92;;
19944;SDS011;10134;50.952;6.930;2023-08-06T04:03:44;5.00;;;2.63;;
19944;SDS011;10134;50.952;6.930;2023-08-06T04:06:12;3.22;;;2.08;;
19944;SDS011;10134;50.952;6.930;2023-08-06T04:08:39;5.55;;;2.05;;
19944;SDS011;10134;50.952;6.930;2023-08-06T04:11:07;2.40;;;2.17;;
19944;SDS011;10134;50.952;6.930;2023-08-06T04:13:35;2.53;;;2.13;;
19944;SDS011;10134;50.952;6.930;2023-08-06T04:16:02;3.28;;;2.15;;
19944;SDS011;10134;50.952;6.930;2023-08-06T04:18:31;4.53;;;2.15;;
19944;SDS011;10134;50.952;6.930;2023-08-06T04:20:58;2.47;;;1.75;;
19944;SDS011;10134;50.952;6.930;2023-08-06T04:23:26;3.47;;;1.90;;
19944;SDS011;10134;50.952;6.930;2023-08-06T04:25:57;3.28;;;2.45;;
19944;SDS011;10134;50.952;6.930;2023-08-06T04:28:29;5.28;;;2.58;;
19944;SDS011;10134;50.952;6.930;2023-08-06T04:30:58;5.63;;;1.92;;
19944;SDS011;10134;50.952;6.930;2023-08-06T04:33:26;2.40;;;1.63;;
19944;SDS011;10134;50.952;6.930;2023-08-06T04:35:56;2.97;;;1.92;;
19944;SDS011;10134;50.952;6.930;2023-08-06T04:38:25;4.35;;;1.63;;
19944;SDS011;10134;50.952;6.930;2023-08-06T04:40:53;4.38;;;1.90;;
19944;SDS011;10134;50.952;6.930;2023-08-06T04:43:22;1.55;;;1.42;;
19944;SDS011;10134;50.952;6.930;2023-08-06T04:45:50;3.95;;;1.65;;
19944;SDS011;10134;50.952;6.930;2023-08-06T04:48:20;3.88;;;1.83;;
19944;SDS011;10134;50.952;6.930;2023-08-06T04:50:48;3.38;;;1.98;;
19944;SDS011;10134;50.952;6.930;2023-08-06T04:53:16;3.28;;;2.28;;
19944;SDS011;10134;50.952;6.930;2023-08-06T04:55:44;3.50;;;2.03;;
19944;SDS011;10134;50.952;6.930;2023-08-06T04:58:11;3.83;;;2.10;;
19944;SDS011;10134;50.952;6.930;2023-08-06T05:00:39;3.40;;;2.03;;
19944;SDS011;10134;50.952;6.930;2023-08-06T05:03:07;4.97;;;2.05;;
19944;SDS011;10134;50.952;6.930;2023-08-06T05:05:34;3.03;;;1.95;;
19944;SDS011;10134;50.952;6.930;2023-08-06T05:08:01;4.85;;;2.22;;
19944;SDS011;10134;50.952;6.930;2023-08-06T05:10:29;2.97;;;1.83;;
19944;SDS011;10134;50.952;6.930;2023-08-06T05:12:56;3.95;;;2.42;;
19944;SDS011;10134;50.952;6.930;2023-08-06T05:15:23;3.45;;;2.05;;
19944;SDS011;10134;50.952;6.930;2023-08-06T05:17:52;3.05;;;2.28;;
19944;SDS011;10134;50.952;6.930;2023-08-06T05:20:20;3.53;;;2.25;;
19944;SDS011;10134;50.952;6.930;2023-08-06T05:22:47;3.42;;;2.13;;
19944;SDS011;10134;50.952;6.930;2023-08-06T05:25:15;2.83;;;2.03;;
19944;SDS011;10134;50.952;6.930;2023-08-06T05:27:42;5.25;;;2.28;;
19944;SDS011;10134;50.952;6.930;2023-08-06T05:30:09;4.05;;;2.13;;
19944;SDS011;10134;50.952;6.930;2023-08-06T05:32:37;2.80;;;1.92;;
19944;SDS011;10134;50.952;6.930;2023-08-06T05:35:05;6.28;;;1.95;;
19944;SDS011;10134;50.952;6.930;2023-08-06T05:37:33;3.42;;;2.15;;
19944;SDS011;10134;50.952;6.930;2023-08-06T05:40:00;4.65;;;2.30;;
19944;SDS011;10134;50.952;6.930;2023-08-06T05:42:29;2.85;;;1.98;;
19944;SDS011;10134;50.952;6.930;2023-08-06T05:44:56;3.75;;;2.10;;
19944;SDS011;10134;50.952;6.930;2023-08-06T05:47:23;3.05;;;1.77;;
19944;SDS011;10134;50.952;6.930;2023-08-06T05:49:51;4.07;;;2.28;;
19944;SDS011;10134;50.952;6.930;2023-08-06T05:52:18;3.55;;;1.95;;
19944;SDS011;10134;50.952;6.930;2023-08-06T05:54:46;3.75;;;1.90;;
19944;SDS011;10134;50.952;6.930;2023-08-06T05:57:13;3.00;;;2.30;;
19944;SDS011;10134;50.952;6.930;2023-08-06T05:59:40;3.85;;;2.10;;
19944;SDS011;10134;50.952;6.930;2023-08-06T06:02:08;6.13;;;2.83;;
19944;SDS011;10134;50.952;6.930;2023-08-06T06:04:36;2.88;;;1.90;;
19944;SDS011;10134;50.952;6.930;2023-08-06T06:07:04;2.20;;;1.30;;
19944;SDS011;10134;50.952;6.930;2023-08-06T06:09:31;6.18;;;1.77;;
19944;SDS011;10134;50.952;6.930;2023-08-06T06:11:59;2.80;;;1.60;;
19944;SDS011;10134;50.952;6.930;2023-08-06T06:14:26;3.60;;;1.92;;
19944;SDS011;10134;50.952;6.930;2023-08-06T06:16:53;3.33;;;1.83;;
19944;SDS011;10134;50.952;6.930;2023-08-06T06:19:20;2.50;;;2.10;;
19944;SDS011;10134;50.952;6.930;2023-08-06T06:21:48;3.60;;;1.83;;
19944;SDS011;10134;50.952;6.930;2023-08-06T06:24:15;4.28;;;2.22;;
19944;SDS011;10134;50.952;6.930;2023-08-06T06:26:42;6.43;;;3.03;;
19944;SDS011;10134;50.952;6.930;2023-08-06T06:29:10;5.05;;;2.72;;
19944;SDS011;10134;50.952;6.930;2023-08-06T06:31:37;3.58;;;2.63;;
19944;SDS011;10134;50.952;6.930;2023-08-06T06:34:04;4.50;;;2.92;;
19944;SDS011;10134;50.952;6.930;2023-08-06T06:36:32;2.92;;;2.20;;
19944;SDS011;10134;50.952;6.930;2023-08-06T06:38:59;3.20;;;2.22;;
19944;SDS011;10134;50.952;6.930;2023-08-06T06:41:26;4.38;;;2.38;;
19944;SDS011;10134;50.952;6.930;2023-08-06T06:44:03;2.83;;;2.28;;
19944;SDS011;10134;50.952;6.930;2023-08-06T06:46:30;3.25;;;2.20;;
19944;SDS011;10134;50.952;6.930;2023-08-06T06:48:58;3.15;;;2.05;;
19944;SDS011;10134;50.952;6.930;2023-08-06T06:51:25;3.28;;;2.10;;
19944;SDS011;10134;50.952;6.930;2023-08-06T06:53:52;4.63;;;1.83;;
19944;SDS011;10134;50.952;6.930;2023-08-06T06:56:20;2.00;;;1.40;;
19944;SDS011;10134;50.952;6.930;2023-08-06T06:58:47;3.40;;;1.58;;
19944;SDS011;10134;50.952;6.930;2023-08-06T07:01:14;1.45;;;1.00;;
19944;SDS011;10134;50.952;6.930;2023-08-06T07:03:42;1.08;;;0.90;;
19944;SDS011;10134;50.952;6.930;2023-08-06T07:06:09;1.55;;;1.05;;
19944;SDS011;10134;50.952;6.930;2023-08-06T07:08:36;1.42;;;1.00;;
19944;SDS011;10134;50.952;6.930;2023-08-06T07:11:04;0.88;;;0.73;;
19944;SDS011;10134;50.952;6.930;2023-08-06T07:13:33;1.52;;;0.80;;
19944;SDS011;10134;50.952;6.930;2023-08-06T07:16:01;0.73;;;0.70;;
19944;SDS011;10134;50.952;6.930;2023-08-06T07:18:28;2.00;;;0.77;;
19944;SDS011;10134;50.952;6.930;2023-08-06T07:20:56;2.75;;;0.93;;
19944;SDS011;10134;50.952;6.930;2023-08-06T07:23:24;0.75;;;0.70;;
19944;SDS011;10134;50.952;6.930;2023-08-06T07:25:52;1.20;;;0.93;;
19944;SDS011;10134;50.952;6.930;2023-08-06T07:28:20;4.43;;;1.10;;
19944;SDS011;10134;50.952;6.930;2023-08-06T07:30:47;0.75;;;0.68;;
19944;SDS011;10134;50.952;6.930;2023-08-06T07:33:15;0.70;;;0.68;;
19944;SDS011;10134;50.952;6.930;2023-08-06T07:35:42;1.52;;;1.08;;
19944;SDS011;10134;50.952;6.930;2023-08-06T07:38:10;1.42;;;0.80;;
19944;SDS011;10134;50.952;6.930;2023-08-06T07:40:38;0.63;;;0.55;;
19944;SDS011;10134;50.952;6.930;2023-08-06T07:43:05;1.20;;;0.63;;
19944;SDS011;10134;50.952;6.930;2023-08-06T07:45:36;0.93;;;0.75;;
19944;SDS011;10134;50.952;6.930;2023-08-06T07:48:04;1.80;;;0.88;;
19944;SDS011;10134;50.952;6.930;2023-08-06T07:50:32;2.03;;;0.90;;
19944;SDS011;10134;50.952;6.930;2023-08-06T07:52:59;0.68;;;0.68;;
19944;SDS011;10134;50.952;6.930;2023-08-06T07:55:26;1.10;;;0.95;;
19944;SDS011;10134;50.952;6.930;2023-08-06T07:57:54;1.35;;;0.80;;
19944;SDS011;10134;50.952;6.930;2023-08-06T08:00:21;2.08;;;0.75;;
19944;SDS011;10134;50.952;6.930;2023-08-06T08:02:48;1.40;;;0.70;;
19944;SDS011;10134;50.952;6.930;2023-08-06T08:05:17;2.90;;;0.90;;
19944;SDS011;10134;50.952;6.930;2023-08-06T08:07:45;3.58;;;1.27;;
19944;SDS011;10134;50.952;6.930;2023-08-06T08:10:12;1.45;;;0.98;;
19944;SDS011;10134;50.952;6.930;2023-08-06T08:12:40;2.13;;;0.90;;
19944;SDS011;10134;50.952;6.930;2023-08-06T08:15:07;3.38;;;0.70;;
19944;SDS011;10134;50.952;6.930;2023-08-06T08:17:35;1.35;;;1.00;;
19944;SDS011;10134;50.952;6.930;2023-08-06T08:20:02;0.85;;;0.73;;
19944;SDS011;10134;50.952;6.930;2023-08-06T08:22:30;0.40;;;0.40;;
19944;SDS011;10134;50.952;6.930;2023-08-06T08:24:57;1.70;;;0.68;;
19944;SDS011;10134;50.952;6.930;2023-08-06T08:27:25;0.82;;;0.55;;
19944;SDS011;10134;50.952;6.930;2023-08-06T08:29:53;1.38;;;0.95;;
19944;SDS011;10134;50.952;6.930;2023-08-06T08:32:20;1.83;;;1.52;;
19944;SDS011;10134;50.952;6.930;2023-08-06T08:34:47;2.65;;;0.88;;
19944;SDS011;10134;50.952;6.930;2023-08-06T08:37:15;0.88;;;0.88;;
19944;SDS011;10134;50.952;6.930;2023-08-06T08:39:42;1.27;;;0.90;;
19944;SDS011;10134;50.952;6.930;2023-08-06T08:42:10;0.90;;;0.70;;
19944;SDS011;10134;50.952;6.930;2023-08-06T08:44:37;2.10;;;1.05;;
19944;SDS011;10134;50.952;6.930;2023-08-06T08:47:06;1.50;;;1.10;;
19944;SDS011;10134;50.952;6.930;2023-08-06T08:49:36;0.88;;;0.75;;
19944;SDS011;10134;50.952;6.930;2023-08-06T08:52:05;0.70;;;0.70;;
19944;SDS011;10134;50.952;6.930;2023-08-06T08:54:34;0.65;;;0.50;;
19944;SDS011;10134;50.952;6.930;2023-08-06T08:57:03;1.17;;;1.00;;
19944;SDS011;10134;50.952;6.930;2023-08-06T08:59:33;3.03;;;0.80;;
19944;SDS011;10134;50.952;6.930;2023-08-06T09:02:00;0.50;;;0.50;;
19944;SDS011;10134;50.952;6.930;2023-08-06T09:04:29;3.42;;;1.20;;
19944;SDS011;10134;50.952;6.930;2023-08-06T09:07:02;1.00;;;0.80;;
19944;SDS011;10134;50.952;6.930;2023-08-06T09:09:31;2.47;;;0.95;;
19944;SDS011;10134;50.952;6.930;2023-08-06T09:12:01;3.83;;;2.03;;
19944;SDS011;10134;50.952;6.930;2023-08-06T09:14:31;2.60;;;1.25;;
19944;SDS011;10134;50.952;6.930;2023-08-06T09:16:58;1.33;;;1.13;;
19944;SDS011;10134;50.952;6.930;2023-08-06T09:19:26;1.38;;;1.10;;
19944;SDS011;10134;50.952;6.930;2023-08-06T09:21:55;1.17;;;1.08;;
19944;SDS011;10134;50.952;6.930;2023-08-06T09:24:23;3.17;;;1.20;;
19944;SDS011;10134;50.952;6.930;2023-08-06T09:26:50;1.50;;;1.40;;
19944;SDS011;10134;50.952;6.930;2023-08-06T09:29:17;2.25;;;1.80;;
19944;SDS011;10134;50.952;6.930;2023-08-06T09:31:45;5.07;;;2.97;;
19944;SDS011;10134;50.952;6.930;2023-08-06T09:34:15;2.00;;;1.80;;
19944;SDS011;10134;50.952;6.930;2023-08-06T09:36:53;2.83;;;2.22;;
19944;SDS011;10134;50.952;6.930;2023-08-06T09:39:27;4.30;;;2.25;;
19944;SDS011;10134;50.952;6.930;2023-08-06T09:41:55;3.28;;;2.55;;
19944;SDS011;10134;50.952;6.930;2023-08-06T09:44:27;2.40;;;2.20;;
19944;SDS011;10134;50.952;6.930;2023-08-06T09:46:56;3.72;;;2.75;;
19944;SDS011;10134;50.952;6.930;2023-08-06T09:52:03;2.60;;;2.40;;
19944;SDS011;10134;50.952;6.930;2023-08-06T09:54:31;2.80;;;2.35;;
19944;SDS011;10134;50.952;6.930;2023-08-06T09:57:01;5.10;;;2.92;;
19944;SDS011;10134;50.952;6.930;2023-08-06T09:59:29;2.63;;;2.20;;
19944;SDS011;10134;50.952;6.930;2023-08-06T10:01:57;4.50;;;3.80;;
19944;SDS011;10134;50.952;6.930;2023-08-06T10:04:25;4.60;;;3.10;;
19944;SDS011;10134;50.952;6.930;2023-08-06T10:07:01;2.00;;;1.80;;
19944;SDS011;10134;50.952;6.930;2023-08-06T10:09:29;2.50;;;2.08;;
19944;SDS011;10134;50.952;6.930;2023-08-06T10:11:56;2.83;;;1.55;;
19944;SDS011;10134;50.952;6.930;2023-08-06T10:14:25;2.88;;;1.13;;
19944;SDS011;10134;50.952;6.930;2023-08-06T10:17:03;2.67;;;0.90;;
19944;SDS011;10134;50.952;6.930;2023-08-06T10:19:31;5.88;;;1.35;;
19944;SDS011;10134;50.952;6.930;2023-08-06T10:24:47;1.27;;;0.80;;
19944;SDS011;10134;50.952;6.930;2023-08-06T10:32:53;4.35;;;0.60;;
19944;SDS011;10134;50.952;6.930;2023-08-06T10:35:37;0.68;;;0.47;;
19944;SDS011;10134;50.952;6.930;2023-08-06T10:38:12;3.75;;;0.60;;
19944;SDS011;10134;50.952;6.930;2023-08-06T10:43:29;0.45;;;0.45;;
19944;SDS011;10134;50.952;6.930;2023-08-06T10:46:00;0.82;;;0.70;;
19944;SDS011;10134;50.952;6.930;2023-08-06T10:48:36;1.38;;;1.00;;
19944;SDS011;10134;50.952;6.930;2023-08-06T10:51:08;2.72;;;1.00;;
19944;SDS011;10134;50.952;6.930;2023-08-06T10:53:37;1.70;;;1.20;;
19944;SDS011;10134;50.952;6.930;2023-08-06T10:56:20;1.60;;;1.23;;
19944;SDS011;10134;50.952;6.930;2023-08-06T10:58:50;1.73;;;1.45;;
19944;SDS011;10134;50.952;6.930;2023-08-06T11:01:21;3.80;;;1.40;;
19944;SDS011;10134;50.952;6.930;2023-08-06T11:03:50;3.15;;;1.25;;
19944;SDS011;10134;50.952;6.930;2023-08-06T11:06:20;3.45;;;1.35;;
19944;SDS011;10134;50.952;6.930;2023-08-06T11:08:50;2.47;;;1.15;;
19944;SDS011;10134;50.952;6.930;2023-08-06T11:11:22;2.38;;;1.58;;
19944;SDS011;10134;50.952;6.930;2023-08-06T11:13:50;4.53;;;1.48;;
19944;SDS011;10134;50.952;6.930;2023-08-06T11:16:20;2.63;;;1.40;;
19944;SDS011;10134;50.952;6.930;2023-08-06T11:18:51;4.13;;;1.63;;
19944;SDS011;10134;50.952;6.930;2023-08-06T11:21:23;2.95;;;1.40;;
19944;SDS011;10134;50.952;6.930;2023-08-06T11:23:53;3.90;;;1.75;;
19944;SDS011;10134;50.952;6.930;2023-08-06T11:26:22;2.33;;;1.38;;
19944;SDS011;10134;50.952;6.930;2023-08-06T11:28:50;5.57;;;2.17;;
19944;SDS011;10134;50.952;6.930;2023-08-06T11:31:21;3.42;;;1.35;;
19944;SDS011;10134;50.952;6.930;2023-08-06T11:33:50;3.53;;;1.63;;
19944;SDS011;10134;50.952;6.930;2023-08-06T11:36:28;1.70;;;1.10;;
19944;SDS011;10134;50.952;6.930;2023-08-06T11:39:03;3.20;;;1.55;;
19944;SDS011;10134;50.952;6.930;2023-08-06T11:41:33;4.15;;;2.00;;
19944;SDS011;10134;50.952;6.930;2023-08-06T11:44:02;6.68;;;1.90;;
19944;SDS011;10134;50.952;6.930;2023-08-06T11:46:49;5.90;;;1.45;;
19944;SDS011;10134;50.952;6.930;2023-08-06T11:52:20;4.93;;;1.40;;
19944;SDS011;10134;50.952;6.930;2023-08-06T11:55:00;2.53;;;1.05;;
19944;SDS011;10134;50.952;6.930;2023-08-06T11:57:30;3.03;;;1.30;;
19944;SDS011;10134;50.952;6.930;2023-08-06T12:00:03;9.50;;;3.03;;
19944;SDS011;10134;50.952;6.930;2023-08-06T12:02:44;3.83;;;1.13;;
19944;SDS011;10134;50.952;6.930;2023-08-06T12:05:14;3.95;;;1.30;;
19944;SDS011;10134;50.952;6.930;2023-08-06T12:07:47;4.97;;;1.70;;
19944;SDS011;10134;50.952;6.930;2023-08-06T12:10:16;3.72;;;1.20;;
19944;SDS011;10134;50.952;6.930;2023-08-06T12:12:44;2.28;;;1.10;;
19944;SDS011;10134;50.952;6.930;2023-08-06T12:15:11;2.15;;;1.15;;
19944;SDS011;10134;50.952;6.930;2023-08-06T12:17:38;2.78;;;1.27;;
19944;SDS011;10134;50.952;6.930;2023-08-06T12:20:06;5.18;;;2.70;;
19944;SDS011;10134;50.952;6.930;2023-08-06T12:22:34;3.63;;;1.30;;
19944;SDS011;10134;50.952;6.930;2023-08-06T12:25:03;1.38;;;1.10;;
19944;SDS011;10134;50.952;6.930;2023-08-06T12:27:35;5.03;;;1.13;;
19944;SDS011;10134;50.952;6.930;2023-08-06T12:30:02;2.97;;;1.13;;
19944;SDS011;10134;50.952;6.930;2023-08-06T12:32:31;5.85;;;1.30;;
19944;SDS011;10134;50.952;6.930;2023-08-06T12:34:58;1.75;;;0.90;;
19944;SDS011;10134;50.952;6.930;2023-08-06T12:37:27;3.45;;;1.20;;
19944;SDS011;10134;50.952;6.930;2023-08-06T12:39:55;8.48;;;1.33;;
19944;SDS011;10134;50.952;6.930;2023-08-06T12:42:22;2.58;;;1.33;;
19944;SDS011;10134;50.952;6.930;2023-08-06T12:44:51;2.35;;;1.23;;
19944;SDS011;10134;50.952;6.930;2023-08-06T12:47:18;4.30;;;1.42;;
19944;SDS011;10134;50.952;6.930;2023-08-06T12:49:46;4.88;;;1.48;;
19944;SDS011;10134;50.952;6.930;2023-08-06T12:52:14;3.58;;;1.48;;
19944;SDS011;10134;50.952;6.930;2023-08-06T12:54:42;3.10;;;1.85;;
19944;SDS011;10134;50.952;6.930;2023-08-06T12:57:09;2.38;;;1.58;;
19944;SDS011;10134;50.952;6.930;2023-08-06T12:59:36;10.52;;;6.38;;
19944;SDS011;10134;50.952;6.930;2023-08-06T13:02:04;8.73;;;2.65;;
19944;SDS011;10134;50.952;6.930;2023-08-06T13:04:31;2.80;;;1.60;;
19944;SDS011;10134;50.952;6.930;2023-08-06T13:07:01;2.20;;;1.50;;
19944;SDS011;10134;50.952;6.930;2023-08-06T13:09:28;3.25;;;1.60;;
19944;SDS011;10134;50.952;6.930;2023-08-06T13:11:59;4.70;;;1.42;;
19944;SDS011;10134;50.952;6.930;2023-08-06T13:14:27;2.97;;;1.23;;
19944;SDS011;10134;50.952;6.930;2023-08-06T13:16:55;2.53;;;1.55;;
19944;SDS011;10134;50.952;6.930;2023-08-06T13:19:23;2.67;;;1.73;;
19944;SDS011;10134;50.952;6.930;2023-08-06T13:24:25;3.38;;;1.13;;
19944;SDS011;10134;50.952;6.930;2023-08-06T13:26:54;3.78;;;1.90;;
19944;SDS011;10134;50.952;6.930;2023-08-06T13:29:21;3.88;;;1.80;;
19944;SDS011;10134;50.952;6.930;2023-08-06T13:31:49;2.78;;;1.83;;
19944;SDS011;10134;50.952;6.930;2023-08-06T13:34:16;3.42;;;1.73;;
19944;SDS011;10134;50.952;6.930;2023-08-06T13:36:43;3.13;;;1.98;;
19944;SDS011;10134;50.952;6.930;2023-08-06T13:39:11;5.00;;;2.75;;
19944;SDS011;10134;50.952;6.930;2023-08-06T13:41:38;7.80;;;2.85;;
19944;SDS011;10134;50.952;6.930;2023-08-06T13:44:06;4.90;;;2.72;;
19944;SDS011;10134;50.952;6.930;2023-08-06T13:46:36;3.75;;;2.53;;
19944;SDS011;10134;50.952;6.930;2023-08-06T13:49:03;6.68;;;3.05;;
19944;SDS011;10134;50.952;6.930;2023-08-06T13:51:31;5.22;;;2.45;;
19944;SDS011;10134;50.952;6.930;2023-08-06T13:54:00;5.35;;;2.20;;
19944;SDS011;10134;50.952;6.930;2023-08-06T13:56:28;4.65;;;2.15;;
19944;SDS011;10134;50.952;6.930;2023-08-06T13:58:59;5.05;;;2.30;;
19944;SDS011;10134;50.952;6.930;2023-08-06T14:01:26;6.50;;;1.98;;
19944;SDS011;10134;50.952;6.930;2023-08-06T14:04:13;3.20;;;2.20;;
19944;SDS011;10134;50.952;6.930;2023-08-06T14:06:41;3.55;;;2.00;;
19944;SDS011;10134;50.952;6.930;2023-08-06T14:09:08;3.22;;;2.17;;
19944;SDS011;10134;50.952;6.930;2023-08-06T14:11:38;3.83;;;2.45;;
19944;SDS011;10134;50.952;6.930;2023-08-06T14:14:05;3.53;;;2.25;;
19944;SDS011;10134;50.952;6.930;2023-08-06T14:16:32;4.50;;;2.33;;
19944;SDS011;10134;50.952;6.930;2023-08-06T14:19:00;4.57;;;2.03;;
19944;SDS011;10134;50.952;6.930;2023-08-06T14:21:27;2.55;;;1.48;;
19944;SDS011;10134;50.952;6.930;2023-08-06T14:23:59;2.28;;;1.10;;
19944;SDS011;10134;50.952;6.930;2023-08-06T14:26:26;2.92;;;1.02;;
19944;SDS011;10134;50.952;6.930;2023-08-06T14:28:54;3.17;;;1.42;;
19944;SDS011;10134;50.952;6.930;2023-08-06T14:31:21;3.42;;;1.17;;
19944;SDS011;10134;50.952;6.930;2023-08-06T14:33:50;3.15;;;1.58;;
19944;SDS011;10134;50.952;6.930;2023-08-06T14:36:20;3.03;;;1.15;;
19944;SDS011;10134;50.952;6.930;2023-08-06T14:38:47;2.58;;;1.15;;
19944;SDS011;10134;50.952;6.930;2023-08-06T14:41:28;4.15;;;1.15;;
19944;SDS011;10134;50.952;6.930;2023-08-06T14:43:59;4.72;;;2.10;;
19944;SDS011;10134;50.952;6.930;2023-08-06T14:46:26;4.13;;;1.38;;
19944;SDS011;10134;50.952;6.930;2023-08-06T14:48:54;2.10;;;0.98;;
19944;SDS011;10134;50.952;6.930;2023-08-06T14:51:21;1.40;;;0.77;;
19944;SDS011;10134;50.952;6.930;2023-08-06T14:53:49;6.28;;;0.90;;
19944;SDS011;10134;50.952;6.930;2023-08-06T14:56:16;2.42;;;1.17;;
19944;SDS011;10134;50.952;6.930;2023-08-06T14:58:44;1.85;;;0.82;;
19944;SDS011;10134;50.952;6.930;2023-08-06T15:01:12;5.95;;;1.17;;
19944;SDS011;10134;50.952;6.930;2023-08-06T15:03:40;3.42;;;1.05;;
19944;SDS011;10134;50.952;6.930;2023-08-06T15:06:07;4.63;;;1.17;;
19944;SDS011;10134;50.952;6.930;2023-08-06T15:08:35;2.45;;;1.17;;
19944;SDS011;10134;50.952;6.930;2023-08-06T15:11:02;4.65;;;1.10;;
19944;SDS011;10134;50.952;6.930;2023-08-06T15:13:30;8.43;;;1.10;;
19944;SDS011;10134;50.952;6.930;2023-08-06T15:15:57;2.25;;;0.88;;
19944;SDS011;10134;50.952;6.930;2023-08-06T15:18:24;2.08;;;1.08;;
19944;SDS011;10134;50.952;6.930;2023-08-06T15:20:52;1.00;;;0.90;;
19944;SDS011;10134;50.952;6.930;2023-08-06T15:23:19;2.40;;;1.30;;